sensor_id;sensor_type;location;lat;lon;timestamp;pressure;altitude;pressure_sealevel;temperature;humidity
3122;BME280;1571;52.524;14.104;2023-07-29T00:01:33;100471.66;;;17.75;100.00
3122;BME280;1571;52.524;14.104;2023-07-29T00:04:02;100462.91;;;17.73;100.00
3122;BME280;1571;52.524;14.104;2023-07-29T00:06:32;100461.63;;;17.77;100.00
3122;BME280;1571;52.524;14.104;2023-07-29T00:09:01;100460.66;;;17.68;100.00
3122;BME280;1571;52.524;14.104;2023-07-29T00:11:30;100454.16;;;17.71;100.00
3122;BME280;1571;52.524;14.104;2023-07-29T00:14:01;100442.72;;;17.68;100.00
3122;BME280;1571;52.524;14.104;2023-07-29T00:16:29;100443.31;;;17.62;100.00
3122;BME280;1571;52.524;14.104;2023-07-29T00:18:57;100437.84;;;17.54;100.00
3122;BME280;1571;52.524;14.104;2023-07-29T00:21:26;100443.88;;;17.66;100.00
3122;BME280;1571;52.524;14.104;2023-07-29T00:23:54;100434.34;;;17.44;100.00
3122;BME280;1571;52.524;14.104;2023-07-29T00:26:24;100433.56;;;17.61;100.00
3122;BME280;1571;52.524;14.104;2023-07-29T00:28:57;100427.66;;;17.58;100.00
3122;BME280;1571;52.524;14.104;2023-07-29T00:31:25;100434.03;;;17.57;100.00
3122;BME280;1571;52.524;14.104;2023-07-29T00:33:54;100429.38;;;17.49;100.00
3122;BME280;1571;52.524;14.104;2023-07-29T00:36:22;100431.28;;;17.39;100.00
3122;BME280;1571;52.524;14.104;2023-07-29T00:38:50;100427.78;;;17.28;100.00
3122;BME280;1571;52.524;14.104;2023-07-29T00:41:21;100424.38;;;17.26;100.00
3122;BME280;1571;52.524;14.104;2023-07-29T00:43:50;100423.50;;;17.36;100.00
3122;BME280;1571;52.524;14.104;2023-07-29T00:46:20;100417.03;;;17.28;100.00
3122;BME280;1571;52.524;14.104;2023-07-29T00:48:50;100419.03;;;17.26;100.00
3122;BME280;1571;52.524;14.104;2023-07-29T00:51:18;100421.59;;;17.18;100.00
3122;BME280;1571;52.524;14.104;2023-07-29T00:53:46;100421.03;;;17.15;100.00
3122;BME280;1571;52.524;14.104;2023-07-29T00:56:15;100429.13;;;17.05;100.00
3122;BME280;1571;52.524;14.104;2023-07-29T00:58:44;100440.00;;;17.03;100.00
3122;BME280;1571;52.524;14.104;2023-07-29T01:01:12;100442.50;;;17.15;100.00
3122;BME280;1571;52.524;14.104;2023-07-29T01:03:42;100447.03;;;17.14;100.00
3122;BME280;1571;52.524;14.104;2023-07-29T01:06:17;100445.06;;;17.16;100.00
3122;BME280;1571;52.524;14.104;2023-07-29T01:08:59;100432.63;;;17.15;100.00
3122;BME280;1571;52.524;14.104;2023-07-29T01:11:41;100429.22;;;17.13;100.00
3122;BME280;1571;52.524;14.104;2023-07-29T01:14:20;100428.69;;;17.00;100.00
3122;BME280;1571;52.524;14.104;2023-07-29T01:16:52;100428.88;;;16.89;100.00
3122;BME280;1571;52.524;14.104;2023-07-29T01:19:35;100436.91;;;16.98;100.00
3122;BME280;1571;52.524;14.104;2023-07-29T01:22:10;100431.81;;;17.05;100.00
3122;BME280;1571;52.524;14.104;2023-07-29T01:24:40;100428.13;;;17.06;100.00
3122;BME280;1571;52.524;14.104;2023-07-29T01:27:08;100424.47;;;16.97;100.00
3122;BME280;1571;52.524;14.104;2023-07-29T01:29:36;100414.44;;;17.09;100.00
3122;BME280;1571;52.524;14.104;2023-07-29T01:32:09;100400.78;;;17.02;100.00
3122;BME280;1571;52.524;14.104;2023-07-29T01:34:41;100395.97;;;16.96;100.00
3122;BME280;1571;52.524;14.104;2023-07-29T01:37:16;100375.94;;;16.91;100.00
3122;BME280;1571;52.524;14.104;2023-07-29T01:39:49;100381.47;;;16.89;100.00
3122;BME280;1571;52.524;14.104;2023-07-29T01:42:18;100368.34;;;16.96;100.00
3122;BME280;1571;52.524;14.104;2023-07-29T01:44:50;100373.97;;;16.93;100.00
3122;BME280;1571;52.524;14.104;2023-07-29T01:47:18;100382.75;;;16.75;100.00
3122;BME280;1571;52.524;14.104;2023-07-29T01:49:47;100384.28;;;16.78;100.00
3122;BME280;1571;52.524;14.104;2023-07-29T01:52:15;100384.16;;;16.79;100.00
3122;BME280;1571;52.524;14.104;2023-07-29T01:54:43;100370.31;;;16.74;100.00
3122;BME280;1571;52.524;14.104;2023-07-29T01:57:13;100362.72;;;16.79;100.00
3122;BME280;1571;52.524;14.104;2023-07-29T01:59:41;100375.88;;;16.53;100.00
3122;BME280;1571;52.524;14.104;2023-07-29T02:02:09;100374.88;;;16.54;100.00
3122;BME280;1571;52.524;14.104;2023-07-29T02:04:38;100382.06;;;16.54;100.00
3122;BME280;1571;52.524;14.104;2023-07-29T02:07:06;100380.22;;;16.54;100.00
3122;BME280;1571;52.524;14.104;2023-07-29T02:09:35;100383.34;;;16.50;100.00
3122;BME280;1571;52.524;14.104;2023-07-29T02:12:03;100367.97;;;16.52;100.00
3122;BME280;1571;52.524;14.104;2023-07-29T02:14:38;100369.06;;;16.59;100.00
3122;BME280;1571;52.524;14.104;2023-07-29T02:17:06;100373.88;;;16.45;100.00
3122;BME280;1571;52.524;14.104;2023-07-29T02:19:35;100368.69;;;16.34;100.00
3122;BME280;1571;52.524;14.104;2023-07-29T02:22:04;100371.78;;;16.30;100.00
3122;BME280;1571;52.524;14.104;2023-07-29T02:24:32;100361.34;;;16.36;100.00
3122;BME280;1571;52.524;14.104;2023-07-29T02:27:01;100365.88;;;16.26;100.00
3122;BME280;1571;52.524;14.104;2023-07-29T02:29:29;100365.88;;;16.16;100.00
3122;BME280;1571;52.524;14.104;2023-07-29T02:31:59;100363.63;;;16.12;100.00
3122;BME280;1571;52.524;14.104;2023-07-29T02:34:27;100364.03;;;15.88;100.00
3122;BME280;1571;52.524;14.104;2023-07-29T02:36:56;100364.16;;;15.86;100.00
3122;BME280;1571;52.524;14.104;2023-07-29T02:39:24;100370.94;;;15.90;100.00
3122;BME280;1571;52.524;14.104;2023-07-29T02:41:53;100366.00;;;15.95;100.00
3122;BME280;1571;52.524;14.104;2023-07-29T02:44:22;100364.63;;;16.01;100.00
3122;BME280;1571;52.524;14.104;2023-07-29T02:46:51;100361.91;;;15.81;100.00
3122;BME280;1571;52.524;14.104;2023-07-29T02:49:23;100363.88;;;15.89;100.00
3122;BME280;1571;52.524;14.104;2023-07-29T02:51:51;100374.59;;;15.89;100.00
3122;BME280;1571;52.524;14.104;2023-07-29T02:54:20;100382.34;;;15.92;100.00
3122;BME280;1571;52.524;14.104;2023-07-29T02:56:49;100374.88;;;15.76;100.00
3122;BME280;1571;52.524;14.104;2023-07-29T02:59:18;100380.22;;;15.86;100.00
3122;BME280;1571;52.524;14.104;2023-07-29T03:01:47;100389.25;;;15.85;100.00
3122;BME280;1571;52.524;14.104;2023-07-29T03:04:15;100385.88;;;15.83;100.00
3122;BME280;1571;52.524;14.104;2023-07-29T03:06:44;100386.41;;;15.77;100.00
3122;BME280;1571;52.524;14.104;2023-07-29T03:09:15;100385.03;;;15.92;100.00
3122;BME280;1571;52.524;14.104;2023-07-29T03:11:43;100374.31;;;15.92;100.00
3122;BME280;1571;52.524;14.104;2023-07-29T03:14:13;100377.84;;;15.83;100.00
3122;BME280;1571;52.524;14.104;2023-07-29T03:16:41;100376.00;;;15.74;100.00
3122;BME280;1571;52.524;14.104;2023-07-29T03:19:10;100384.06;;;15.62;100.00
3122;BME280;1571;52.524;14.104;2023-07-29T03:21:38;100385.78;;;15.64;100.00
3122;BME280;1571;52.524;14.104;2023-07-29T03:24:08;100392.47;;;15.79;100.00
3122;BME280;1571;52.524;14.104;2023-07-29T03:26:36;100384.66;;;15.66;100.00
3122;BME280;1571;52.524;14.104;2023-07-29T03:29:05;100375.59;;;15.48;100.00
3122;BME280;1571;52.524;14.104;2023-07-29T03:31:33;100379.00;;;15.59;100.00
3122;BME280;1571;52.524;14.104;2023-07-29T03:34:01;100380.16;;;15.67;100.00
3122;BME280;1571;52.524;14.104;2023-07-29T03:36:30;100377.22;;;15.70;100.00
3122;BME280;1571;52.524;14.104;2023-07-29T03:38:58;100375.09;;;15.64;100.00
3122;BME280;1571;52.524;14.104;2023-07-29T03:41:29;100378.81;;;15.72;100.00
3122;BME280;1571;52.524;14.104;2023-07-29T03:43:57;100372.00;;;15.68;100.00
3122;BME280;1571;52.524;14.104;2023-07-29T03:46:25;100358.44;;;15.60;100.00
3122;BME280;1571;52.524;14.104;2023-07-29T03:48:54;100353.91;;;15.41;100.00
3122;BME280;1571;52.524;14.104;2023-07-29T03:51:22;100350.13;;;15.13;100.00
3122;BME280;1571;52.524;14.104;2023-07-29T03:53:51;100344.84;;;15.23;100.00
3122;BME280;1571;52.524;14.104;2023-07-29T03:56:19;100357.22;;;15.24;100.00
3122;BME280;1571;52.524;14.104;2023-07-29T03:58:49;100366.75;;;15.47;100.00
3122;BME280;1571;52.524;14.104;2023-07-29T04:01:18;100360.41;;;15.58;100.00
3122;BME280;1571;52.524;14.104;2023-07-29T04:03:46;100363.78;;;15.50;100.00
3122;BME280;1571;52.524;14.104;2023-07-29T04:06:15;100363.38;;;15.55;100.00
3122;BME280;1571;52.524;14.104;2023-07-29T04:08:43;100366.34;;;15.61;100.00
3122;BME280;1571;52.524;14.104;2023-07-29T04:11:12;100353.75;;;15.83;100.00
3122;BME280;1571;52.524;14.104;2023-07-29T04:13:40;100348.41;;;16.02;100.00
3122;BME280;1571;52.524;14.104;2023-07-29T04:16:10;100347.28;;;16.15;100.00
3122;BME280;1571;52.524;14.104;2023-07-29T04:18:38;100343.72;;;16.34;100.00
3122;BME280;1571;52.524;14.104;2023-07-29T04:21:07;100335.97;;;16.40;100.00
3122;BME280;1571;52.524;14.104;2023-07-29T04:23:35;100315.47;;;16.59;100.00
3122;BME280;1571;52.524;14.104;2023-07-29T04:26:03;100318.28;;;16.87;100.00
3122;BME280;1571;52.524;14.104;2023-07-29T04:28:32;100318.34;;;17.04;100.00
3122;BME280;1571;52.524;14.104;2023-07-29T04:31:00;100309.97;;;17.35;100.00
3122;BME280;1571;52.524;14.104;2023-07-29T04:33:30;100291.56;;;17.68;100.00
3122;BME280;1571;52.524;14.104;2023-07-29T04:36:03;100271.19;;;17.93;100.00
3122;BME280;1571;52.524;14.104;2023-07-29T04:38:32;100270.91;;;17.51;100.00
3122;BME280;1571;52.524;14.104;2023-07-29T04:41:01;100274.38;;;17.79;100.00
3122;BME280;1571;52.524;14.104;2023-07-29T04:43:31;100275.22;;;17.79;100.00
3122;BME280;1571;52.524;14.104;2023-07-29T04:45:59;100270.59;;;18.07;100.00
3122;BME280;1571;52.524;14.104;2023-07-29T04:48:29;100261.03;;;18.57;100.00
3122;BME280;1571;52.524;14.104;2023-07-29T04:50:57;100255.31;;;18.78;100.00
3122;BME280;1571;52.524;14.104;2023-07-29T04:53:26;100241.59;;;18.89;100.00
3122;BME280;1571;52.524;14.104;2023-07-29T04:55:54;100230.13;;;19.38;100.00
3122;BME280;1571;52.524;14.104;2023-07-29T04:58:22;100217.00;;;19.51;100.00
3122;BME280;1571;52.524;14.104;2023-07-29T05:00:51;100219.59;;;19.69;100.00
3122;BME280;1571;52.524;14.104;2023-07-29T05:03:19;100208.78;;;19.53;100.00
3122;BME280;1571;52.524;14.104;2023-07-29T05:05:49;100215.97;;;19.36;100.00
3122;BME280;1571;52.524;14.104;2023-07-29T05:08:18;100224.25;;;19.51;100.00
3122;BME280;1571;52.524;14.104;2023-07-29T05:10:48;100222.41;;;19.43;100.00
3122;BME280;1571;52.524;14.104;2023-07-29T05:13:17;100226.09;;;18.83;100.00
3122;BME280;1571;52.524;14.104;2023-07-29T05:15:47;100232.00;;;18.87;100.00
3122;BME280;1571;52.524;14.104;2023-07-29T05:18:16;100239.88;;;18.80;100.00
3122;BME280;1571;52.524;14.104;2023-07-29T05:20:44;100240.69;;;18.46;100.00
3122;BME280;1571;52.524;14.104;2023-07-29T05:23:14;100250.06;;;18.50;100.00
3122;BME280;1571;52.524;14.104;2023-07-29T05:25:42;100250.75;;;18.52;100.00
3122;BME280;1571;52.524;14.104;2023-07-29T05:28:11;100262.28;;;18.71;100.00
3122;BME280;1571;52.524;14.104;2023-07-29T05:30:39;100260.06;;;18.66;100.00
3122;BME280;1571;52.524;14.104;2023-07-29T05:33:07;100266.06;;;18.78;100.00
3122;BME280;1571;52.524;14.104;2023-07-29T05:35:37;100259.34;;;19.17;100.00
3122;BME280;1571;52.524;14.104;2023-07-29T05:38:06;100260.69;;;19.21;100.00
3122;BME280;1571;52.524;14.104;2023-07-29T05:40:37;100251.41;;;19.15;100.00
3122;BME280;1571;52.524;14.104;2023-07-29T05:43:06;100261.22;;;19.41;100.00
3122;BME280;1571;52.524;14.104;2023-07-29T05:45:34;100248.22;;;19.87;100.00
3122;BME280;1571;52.524;14.104;2023-07-29T05:48:03;100240.91;;;19.63;100.00
3122;BME280;1571;52.524;14.104;2023-07-29T05:50:32;100240.75;;;19.48;100.00
3122;BME280;1571;52.524;14.104;2023-07-29T05:53:00;100241.88;;;19.29;100.00
3122;BME280;1571;52.524;14.104;2023-07-29T05:55:29;100250.47;;;19.41;100.00
3122;BME280;1571;52.524;14.104;2023-07-29T05:57:58;100254.34;;;19.30;100.00
3122;BME280;1571;52.524;14.104;2023-07-29T06:00:27;100250.34;;;19.50;100.00
3122;BME280;1571;52.524;14.104;2023-07-29T06:02:55;100251.34;;;19.58;100.00
3122;BME280;1571;52.524;14.104;2023-07-29T06:05:24;100239.94;;;19.72;100.00
3122;BME280;1571;52.524;14.104;2023-07-29T06:07:52;100232.72;;;19.72;100.00
3122;BME280;1571;52.524;14.104;2023-07-29T06:10:21;100221.09;;;20.05;100.00
3122;BME280;1571;52.524;14.104;2023-07-29T06:12:49;100224.44;;;20.15;100.00
3122;BME280;1571;52.524;14.104;2023-07-29T06:15:19;100207.06;;;20.34;100.00
3122;BME280;1571;52.524;14.104;2023-07-29T06:17:50;100199.94;;;20.66;100.00
3122;BME280;1571;52.524;14.104;2023-07-29T06:20:23;100194.66;;;20.81;100.00
3122;BME280;1571;52.524;14.104;2023-07-29T06:22:51;100185.25;;;20.99;100.00
3122;BME280;1571;52.524;14.104;2023-07-29T06:25:19;100196.84;;;20.77;100.00
3122;BME280;1571;52.524;14.104;2023-07-29T06:27:49;100187.41;;;20.73;100.00
3122;BME280;1571;52.524;14.104;2023-07-29T06:30:19;100197.91;;;20.59;100.00
3122;BME280;1571;52.524;14.104;2023-07-29T06:32:47;100191.44;;;20.77;100.00
3122;BME280;1571;52.524;14.104;2023-07-29T06:35:16;100195.22;;;20.59;100.00
3122;BME280;1571;52.524;14.104;2023-07-29T06:37:44;100186.13;;;20.52;100.00
3122;BME280;1571;52.524;14.104;2023-07-29T06:40:12;100188.31;;;20.57;100.00
3122;BME280;1571;52.524;14.104;2023-07-29T06:42:41;100199.78;;;20.98;100.00
3122;BME280;1571;52.524;14.104;2023-07-29T06:45:09;100190.78;;;21.37;100.00
3122;BME280;1571;52.524;14.104;2023-07-29T06:47:40;100192.25;;;21.48;100.00
3122;BME280;1571;52.524;14.104;2023-07-29T06:50:09;100190.47;;;21.32;98.40
3122;BME280;1571;52.524;14.104;2023-07-29T06:55:07;100172.88;;;21.36;99.48
3122;BME280;1571;52.524;14.104;2023-07-29T06:57:36;100175.53;;;21.68;97.75
3122;BME280;1571;52.524;14.104;2023-07-29T07:00:05;100165.00;;;21.58;97.07
3122;BME280;1571;52.524;14.104;2023-07-29T07:02:36;100162.56;;;22.01;96.58
3122;BME280;1571;52.524;14.104;2023-07-29T07:05:06;100156.44;;;22.07;95.46
3122;BME280;1571;52.524;14.104;2023-07-29T07:07:34;100157.28;;;22.08;93.73
3122;BME280;1571;52.524;14.104;2023-07-29T07:10:04;100164.84;;;21.74;93.58
3122;BME280;1571;52.524;14.104;2023-07-29T07:12:32;100164.44;;;22.15;94.64
3122;BME280;1571;52.524;14.104;2023-07-29T07:15:01;100163.56;;;22.23;93.62
3122;BME280;1571;52.524;14.104;2023-07-29T07:17:29;100162.41;;;22.17;94.23
3122;BME280;1571;52.524;14.104;2023-07-29T07:19:59;100167.31;;;21.99;95.18
3122;BME280;1571;52.524;14.104;2023-07-29T07:22:28;100167.41;;;22.06;94.10
3122;BME280;1571;52.524;14.104;2023-07-29T07:24:57;100169.81;;;22.23;94.89
3122;BME280;1571;52.524;14.104;2023-07-29T07:27:25;100179.41;;;22.26;94.43
3122;BME280;1571;52.524;14.104;2023-07-29T07:29:53;100172.19;;;22.18;94.39
3122;BME280;1571;52.524;14.104;2023-07-29T07:32:21;100181.66;;;22.22;92.70
3122;BME280;1571;52.524;14.104;2023-07-29T07:34:50;100169.25;;;22.43;93.48
3122;BME280;1571;52.524;14.104;2023-07-29T07:37:18;100169.22;;;22.73;92.54
3122;BME280;1571;52.524;14.104;2023-07-29T07:39:48;100166.56;;;22.94;91.14
3122;BME280;1571;52.524;14.104;2023-07-29T07:42:17;100172.31;;;22.40;91.15
3122;BME280;1571;52.524;14.104;2023-07-29T07:44:45;100173.81;;;22.28;91.47
3122;BME280;1571;52.524;14.104;2023-07-29T07:47:13;100178.63;;;22.17;93.77
3122;BME280;1571;52.524;14.104;2023-07-29T07:49:41;100173.34;;;22.24;92.81
3122;BME280;1571;52.524;14.104;2023-07-29T07:52:09;100166.78;;;22.18;92.71
3122;BME280;1571;52.524;14.104;2023-07-29T07:54:38;100166.09;;;22.01;94.71
3122;BME280;1571;52.524;14.104;2023-07-29T07:57:07;100166.50;;;22.13;94.06
3122;BME280;1571;52.524;14.104;2023-07-29T07:59:35;100175.97;;;21.94;95.36
3122;BME280;1571;52.524;14.104;2023-07-29T08:02:04;100171.91;;;21.98;94.83
3122;BME280;1571;52.524;14.104;2023-07-29T08:04:33;100166.09;;;22.01;95.48
3122;BME280;1571;52.524;14.104;2023-07-29T08:07:01;100153.34;;;22.10;95.03
3122;BME280;1571;52.524;14.104;2023-07-29T08:09:29;100152.06;;;22.36;93.37
3122;BME280;1571;52.524;14.104;2023-07-29T08:11:58;100152.81;;;22.59;91.80
3122;BME280;1571;52.524;14.104;2023-07-29T08:14:27;100151.13;;;22.58;91.85
3122;BME280;1571;52.524;14.104;2023-07-29T08:16:56;100157.75;;;22.56;92.19
3122;BME280;1571;52.524;14.104;2023-07-29T08:19:24;100145.75;;;22.43;92.45
3122;BME280;1571;52.524;14.104;2023-07-29T08:21:52;100147.06;;;22.33;92.74
3122;BME280;1571;52.524;14.104;2023-07-29T08:24:21;100138.25;;;23.12;90.10
3122;BME280;1571;52.524;14.104;2023-07-29T08:26:49;100139.78;;;23.64;86.34
3122;BME280;1571;52.524;14.104;2023-07-29T08:29:17;100137.59;;;23.53;85.99
3122;BME280;1571;52.524;14.104;2023-07-29T08:31:47;100142.91;;;23.61;85.12
3122;BME280;1571;52.524;14.104;2023-07-29T08:34:16;100135.94;;;23.30;85.39
3122;BME280;1571;52.524;14.104;2023-07-29T08:36:44;100138.09;;;23.84;85.35
3122;BME280;1571;52.524;14.104;2023-07-29T08:39:12;100143.06;;;24.09;83.18
3122;BME280;1571;52.524;14.104;2023-07-29T08:41:46;100150.25;;;23.67;83.59
3122;BME280;1571;52.524;14.104;2023-07-29T08:44:21;100153.72;;;23.39;84.87
3122;BME280;1571;52.524;14.104;2023-07-29T08:46:52;100158.91;;;23.13;86.94
3122;BME280;1571;52.524;14.104;2023-07-29T08:49:23;100149.72;;;23.14;88.08
3122;BME280;1571;52.524;14.104;2023-07-29T08:51:53;100157.47;;;23.17;86.43
3122;BME280;1571;52.524;14.104;2023-07-29T08:54:22;100147.13;;;23.42;87.25
3122;BME280;1571;52.524;14.104;2023-07-29T08:56:50;100152.75;;;23.25;86.08
3122;BME280;1571;52.524;14.104;2023-07-29T08:59:19;100147.81;;;23.29;87.50
3122;BME280;1571;52.524;14.104;2023-07-29T09:01:47;100151.53;;;23.71;86.41
3122;BME280;1571;52.524;14.104;2023-07-29T09:04:17;100143.63;;;23.98;84.43
3122;BME280;1571;52.524;14.104;2023-07-29T09:06:47;100131.72;;;23.92;83.95
3122;BME280;1571;52.524;14.104;2023-07-29T09:09:17;100123.84;;;24.04;84.02
3122;BME280;1571;52.524;14.104;2023-07-29T09:11:45;100138.19;;;23.69;85.40
3122;BME280;1571;52.524;14.104;2023-07-29T09:14:14;100132.06;;;23.61;85.72
3122;BME280;1571;52.524;14.104;2023-07-29T09:16:43;100134.00;;;23.45;84.11
3122;BME280;1571;52.524;14.104;2023-07-29T09:19:11;100136.28;;;23.42;85.18
3122;BME280;1571;52.524;14.104;2023-07-29T09:21:42;100137.22;;;23.56;85.90
3122;BME280;1571;52.524;14.104;2023-07-29T09:24:10;100138.00;;;23.49;85.89
3122;BME280;1571;52.524;14.104;2023-07-29T09:26:40;100128.06;;;23.57;85.38
3122;BME280;1571;52.524;14.104;2023-07-29T09:29:22;100101.88;;;24.27;82.57
3122;BME280;1571;52.524;14.104;2023-07-29T09:32:23;100118.13;;;24.55;80.67
3122;BME280;1571;52.524;14.104;2023-07-29T09:34:51;100110.53;;;24.99;79.41
3122;BME280;1571;52.524;14.104;2023-07-29T09:37:22;100109.69;;;24.91;79.04
3122;BME280;1571;52.524;14.104;2023-07-29T09:39:50;100113.63;;;24.41;78.98
3122;BME280;1571;52.524;14.104;2023-07-29T09:42:19;100107.97;;;24.36;78.78
3122;BME280;1571;52.524;14.104;2023-07-29T09:44:49;100106.03;;;24.23;80.42
3122;BME280;1571;52.524;14.104;2023-07-29T09:47:22;100107.50;;;23.90;81.36
3122;BME280;1571;52.524;14.104;2023-07-29T09:49:52;100115.22;;;23.65;82.40
3122;BME280;1571;52.524;14.104;2023-07-29T09:52:22;100098.19;;;23.72;84.43
3122;BME280;1571;52.524;14.104;2023-07-29T09:54:51;100095.69;;;24.40;81.13
3122;BME280;1571;52.524;14.104;2023-07-29T09:57:20;100094.13;;;24.52;78.92
3122;BME280;1571;52.524;14.104;2023-07-29T09:59:55;100097.09;;;24.70;78.67
3122;BME280;1571;52.524;14.104;2023-07-29T10:02:24;100102.56;;;24.84;78.15
3122;BME280;1571;52.524;14.104;2023-07-29T10:04:56;100097.25;;;24.62;79.14
3122;BME280;1571;52.524;14.104;2023-07-29T10:07:27;100098.75;;;24.71;77.64
3122;BME280;1571;52.524;14.104;2023-07-29T10:09:55;100090.97;;;24.55;80.41
3122;BME280;1571;52.524;14.104;2023-07-29T10:12:24;100086.59;;;24.61;80.34
3122;BME280;1571;52.524;14.104;2023-07-29T10:14:53;100089.94;;;24.56;81.43
3122;BME280;1571;52.524;14.104;2023-07-29T10:17:22;100082.91;;;24.75;80.82
3122;BME280;1571;52.524;14.104;2023-07-29T10:19:51;100082.09;;;24.88;78.50
3122;BME280;1571;52.524;14.104;2023-07-29T10:22:21;100072.09;;;25.15;75.95
3122;BME280;1571;52.524;14.104;2023-07-29T10:24:56;100073.56;;;24.98;77.24
3122;BME280;1571;52.524;14.104;2023-07-29T10:27:28;100079.97;;;24.77;78.12
3122;BME280;1571;52.524;14.104;2023-07-29T10:29:57;100069.13;;;24.83;77.76
3122;BME280;1571;52.524;14.104;2023-07-29T10:32:25;100066.63;;;24.75;77.92
3122;BME280;1571;52.524;14.104;2023-07-29T10:34:54;100065.19;;;24.86;77.69
3122;BME280;1571;52.524;14.104;2023-07-29T10:37:23;100057.91;;;24.93;76.36
3122;BME280;1571;52.524;14.104;2023-07-29T10:39:54;100055.38;;;24.98;75.10
3122;BME280;1571;52.524;14.104;2023-07-29T10:42:23;100049.53;;;25.01;75.04
3122;BME280;1571;52.524;14.104;2023-07-29T10:44:52;100038.47;;;25.09;74.65
3122;BME280;1571;52.524;14.104;2023-07-29T10:47:23;100040.41;;;25.29;74.09
3122;BME280;1571;52.524;14.104;2023-07-29T10:49:54;100041.63;;;25.06;75.72
3122;BME280;1571;52.524;14.104;2023-07-29T10:52:40;100036.00;;;25.21;73.67
3122;BME280;1571;52.524;14.104;2023-07-29T10:55:25;100033.25;;;25.14;75.03
3122;BME280;1571;52.524;14.104;2023-07-29T10:58:08;100032.84;;;25.44;72.24
3122;BME280;1571;52.524;14.104;2023-07-29T11:00:38;100027.66;;;25.23;74.54
3122;BME280;1571;52.524;14.104;2023-07-29T11:03:07;100020.34;;;25.43;73.41
3122;BME280;1571;52.524;14.104;2023-07-29T11:05:43;100016.31;;;25.66;71.23
3122;BME280;1571;52.524;14.104;2023-07-29T11:08:20;100013.75;;;25.98;70.00
3122;BME280;1571;52.524;14.104;2023-07-29T11:11:03;100008.16;;;25.72;70.88
3122;BME280;1571;52.524;14.104;2023-07-29T11:13:33;100005.28;;;25.61;72.77
3122;BME280;1571;52.524;14.104;2023-07-29T11:16:03;100008.59;;;25.76;70.71
3122;BME280;1571;52.524;14.104;2023-07-29T11:18:33;100007.31;;;25.92;70.01
3122;BME280;1571;52.524;14.104;2023-07-29T11:21:03;100001.00;;;25.91;69.10
3122;BME280;1571;52.524;14.104;2023-07-29T11:23:33;99997.69;;;25.83;68.72
3122;BME280;1571;52.524;14.104;2023-07-29T11:26:04;99999.00;;;25.53;69.60
3122;BME280;1571;52.524;14.104;2023-07-29T11:28:38;99994.81;;;25.58;69.03
3122;BME280;1571;52.524;14.104;2023-07-29T11:31:06;99989.78;;;25.68;68.19
3122;BME280;1571;52.524;14.104;2023-07-29T11:33:35;99999.84;;;25.47;67.79
3122;BME280;1571;52.524;14.104;2023-07-29T11:36:03;99990.66;;;25.42;67.16
3122;BME280;1571;52.524;14.104;2023-07-29T11:38:32;99995.88;;;25.43;67.48
3122;BME280;1571;52.524;14.104;2023-07-29T11:41:05;99993.38;;;25.35;68.65
3122;BME280;1571;52.524;14.104;2023-07-29T11:43:35;99994.75;;;25.77;68.21
3122;BME280;1571;52.524;14.104;2023-07-29T11:46:03;99982.84;;;25.79;67.58
3122;BME280;1571;52.524;14.104;2023-07-29T11:48:32;99982.72;;;25.53;69.07
3122;BME280;1571;52.524;14.104;2023-07-29T11:51:02;99974.16;;;25.43;67.70
3122;BME280;1571;52.524;14.104;2023-07-29T11:53:31;99978.13;;;25.34;67.70
3122;BME280;1571;52.524;14.104;2023-07-29T11:55:59;99978.94;;;25.54;67.86
3122;BME280;1571;52.524;14.104;2023-07-29T11:58:29;99974.38;;;25.22;67.11
3122;BME280;1571;52.524;14.104;2023-07-29T12:00:58;99971.22;;;25.11;67.92
3122;BME280;1571;52.524;14.104;2023-07-29T12:03:27;99965.38;;;25.01;67.19
3122;BME280;1571;52.524;14.104;2023-07-29T12:05:55;99977.69;;;25.10;67.37
3122;BME280;1571;52.524;14.104;2023-07-29T12:08:24;99990.84;;;24.87;68.82
3122;BME280;1571;52.524;14.104;2023-07-29T12:10:53;99987.25;;;24.60;70.42
3122;BME280;1571;52.524;14.104;2023-07-29T12:13:23;99976.97;;;24.42;69.87
3122;BME280;1571;52.524;14.104;2023-07-29T12:16:01;99983.81;;;24.31;70.44
3122;BME280;1571;52.524;14.104;2023-07-29T12:18:30;99997.00;;;23.93;72.63
3122;BME280;1571;52.524;14.104;2023-07-29T12:20:59;100003.03;;;23.53;75.18
3122;BME280;1571;52.524;14.104;2023-07-29T12:23:28;100009.00;;;23.20;76.89
3122;BME280;1571;52.524;14.104;2023-07-29T12:25:58;100025.72;;;22.81;80.56
3122;BME280;1571;52.524;14.104;2023-07-29T12:28:27;100037.06;;;21.74;85.88
3122;BME280;1571;52.524;14.104;2023-07-29T12:30:57;100045.75;;;20.85;95.79
3122;BME280;1571;52.524;14.104;2023-07-29T12:33:30;100052.47;;;20.27;100.00
3122;BME280;1571;52.524;14.104;2023-07-29T12:35:58;100053.69;;;20.08;100.00
3122;BME280;1571;52.524;14.104;2023-07-29T12:38:27;100060.81;;;19.92;100.00
3122;BME280;1571;52.524;14.104;2023-07-29T12:40:56;100067.75;;;19.79;100.00
3122;BME280;1571;52.524;14.104;2023-07-29T12:43:25;100066.78;;;19.55;100.00
3122;BME280;1571;52.524;14.104;2023-07-29T12:45:53;100067.28;;;19.50;100.00
3122;BME280;1571;52.524;14.104;2023-07-29T12:48:23;100083.59;;;19.57;100.00
3122;BME280;1571;52.524;14.104;2023-07-29T12:50:51;100075.34;;;19.42;100.00
3122;BME280;1571;52.524;14.104;2023-07-29T12:53:20;100057.72;;;19.48;100.00
3122;BME280;1571;52.524;14.104;2023-07-29T12:55:48;100054.66;;;19.59;100.00
3122;BME280;1571;52.524;14.104;2023-07-29T12:58:16;100061.03;;;19.66;100.00
3122;BME280;1571;52.524;14.104;2023-07-29T13:00:44;100063.41;;;19.61;100.00
3122;BME280;1571;52.524;14.104;2023-07-29T13:03:14;100068.44;;;19.64;100.00
3122;BME280;1571;52.524;14.104;2023-07-29T13:05:44;100077.88;;;19.68;100.00
3122;BME280;1571;52.524;14.104;2023-07-29T13:08:12;100072.84;;;19.49;100.00
3122;BME280;1571;52.524;14.104;2023-07-29T13:10:41;100079.22;;;19.56;100.00